sensor_id;sensor_type;location;lat;lon;timestamp;P1;durP1;ratioP1;P2;durP2;ratioP2
10275;SDS011;5183;51.190;6.820;2022-12-29T05:48:24;2.47;;;1.10;;
10275;SDS011;5183;51.190;6.820;2022-12-29T05:50:51;3.47;;;1.10;;
10275;SDS011;5183;51.190;6.820;2022-12-29T05:53:18;1.67;;;1.00;;
10275;SDS011;5183;51.190;6.820;2022-12-29T05:55:46;2.97;;;0.90;;
10275;SDS011;5183;51.190;6.820;2022-12-29T05:58:13;1.53;;;1.27;;
10275;SDS011;5183;51.190;6.820;2022-12-29T06:00:40;1.67;;;1.00;;
10275;SDS011;5183;51.190;6.820;2022-12-29T06:03:07;0.97;;;0.87;;
10275;SDS011;5183;51.190;6.820;2022-12-29T06:05:35;2.93;;;1.20;;
10275;SDS011;5183;51.190;6.820;2022-12-29T06:08:05;1.10;;;0.87;;
10275;SDS011;5183;51.190;6.820;2022-12-29T06:10:32;2.17;;;1.20;;
10275;SDS011;5183;51.190;6.820;2022-12-29T06:12:58;2.60;;;1.27;;
10275;SDS011;5183;51.190;6.820;2022-12-29T06:15:25;1.93;;;0.90;;
10275;SDS011;5183;51.190;6.820;2022-12-29T06:17:52;1.83;;;1.00;;
10275;SDS011;5183;51.190;6.820;2022-12-29T06:20:19;1.90;;;1.10;;
10275;SDS011;5183;51.190;6.820;2022-12-29T06:22:47;2.70;;;1.10;;
10275;SDS011;5183;51.190;6.820;2022-12-29T06:25:14;1.67;;;1.17;;
10275;SDS011;5183;51.190;6.820;2022-12-29T06:27:41;2.53;;;1.10;;
10275;SDS011;5183;51.190;6.820;2022-12-29T06:30:09;3.13;;;1.10;;
10275;SDS011;5183;51.190;6.820;2022-12-29T06:32:36;4.10;;;1.50;;
10275;SDS011;5183;51.190;6.820;2022-12-29T06:35:04;2.27;;;1.03;;
10275;SDS011;5183;51.190;6.820;2022-12-29T06:37:31;2.90;;;1.00;;
10275;SDS011;5183;51.190;6.820;2022-12-29T06:40:00;1.90;;;1.10;;
10275;SDS011;5183;51.190;6.820;2022-12-29T06:42:27;3.00;;;1.10;;
10275;SDS011;5183;51.190;6.820;2022-12-29T06:44:54;1.97;;;1.10;;
10275;SDS011;5183;51.190;6.820;2022-12-29T06:47:23;1.33;;;0.93;;
10275;SDS011;5183;51.190;6.820;2022-12-29T06:49:50;2.70;;;1.13;;
10275;SDS011;5183;51.190;6.820;2022-12-29T06:52:17;2.53;;;1.20;;
10275;SDS011;5183;51.190;6.820;2022-12-29T06:54:44;2.30;;;1.20;;
10275;SDS011;5183;51.190;6.820;2022-12-29T06:57:12;4.00;;;1.10;;
10275;SDS011;5183;51.190;6.820;2022-12-29T06:59:39;2.10;;;1.27;;
10275;SDS011;5183;51.190;6.820;2022-12-29T07:02:06;4.97;;;1.30;;
10275;SDS011;5183;51.190;6.820;2022-12-29T07:04:33;2.83;;;1.20;;
10275;SDS011;5183;51.190;6.820;2022-12-29T07:06:59;2.10;;;1.30;;
10275;SDS011;5183;51.190;6.820;2022-12-29T07:09:26;3.73;;;1.20;;
10275;SDS011;5183;51.190;6.820;2022-12-29T07:11:53;4.87;;;1.50;;
10275;SDS011;5183;51.190;6.820;2022-12-29T07:14:21;3.43;;;1.20;;
10275;SDS011;5183;51.190;6.820;2022-12-29T07:16:48;4.57;;;1.30;;
10275;SDS011;5183;51.190;6.820;2022-12-29T07:19:15;3.93;;;1.43;;
10275;SDS011;5183;51.190;6.820;2022-12-29T07:21:42;2.47;;;1.40;;
10275;SDS011;5183;51.190;6.820;2022-12-29T07:24:09;3.23;;;1.50;;
10275;SDS011;5183;51.190;6.820;2022-12-29T07:26:35;4.37;;;1.43;;
10275;SDS011;5183;51.190;6.820;2022-12-29T07:29:02;3.97;;;1.27;;
10275;SDS011;5183;51.190;6.820;2022-12-29T07:31:31;2.03;;;1.00;;
10275;SDS011;5183;51.190;6.820;2022-12-29T07:33:57;3.03;;;1.20;;
10275;SDS011;5183;51.190;6.820;2022-12-29T07:36:24;6.10;;;1.50;;
10275;SDS011;5183;51.190;6.820;2022-12-29T07:38:51;2.97;;;1.20;;
10275;SDS011;5183;51.190;6.820;2022-12-29T07:41:18;3.07;;;1.30;;
10275;SDS011;5183;51.190;6.820;2022-12-29T07:43:46;3.30;;;1.40;;
10275;SDS011;5183;51.190;6.820;2022-12-29T07:46:13;2.90;;;1.53;;
10275;SDS011;5183;51.190;6.820;2022-12-29T07:48:42;3.10;;;1.33;;
10275;SDS011;5183;51.190;6.820;2022-12-29T07:51:08;3.03;;;1.20;;
10275;SDS011;5183;51.190;6.820;2022-12-29T07:53:36;3.07;;;1.37;;
10275;SDS011;5183;51.190;6.820;2022-12-29T07:56:03;4.17;;;1.40;;
10275;SDS011;5183;51.190;6.820;2022-12-29T07:58:31;3.13;;;1.30;;
10275;SDS011;5183;51.190;6.820;2022-12-29T08:00:58;3.07;;;1.30;;
10275;SDS011;5183;51.190;6.820;2022-12-29T08:03:25;3.40;;;1.30;;
10275;SDS011;5183;51.190;6.820;2022-12-29T08:05:53;5.83;;;1.73;;
10275;SDS011;5183;51.190;6.820;2022-12-29T08:08:20;4.13;;;1.30;;
10275;SDS011;5183;51.190;6.820;2022-12-29T08:10:47;6.97;;;1.70;;
10275;SDS011;5183;51.190;6.820;2022-12-29T08:13:14;3.97;;;1.40;;
10275;SDS011;5183;51.190;6.820;2022-12-29T08:15:40;5.80;;;1.67;;
10275;SDS011;5183;51.190;6.820;2022-12-29T08:18:07;5.18;;;1.70;;
10275;SDS011;5183;51.190;6.820;2022-12-29T08:20:34;5.20;;;1.60;;
10275;SDS011;5183;51.190;6.820;2022-12-29T08:23:02;5.00;;;1.60;;
10275;SDS011;5183;51.190;6.820;2022-12-29T08:25:29;5.43;;;1.47;;
10275;SDS011;5183;51.190;6.820;2022-12-29T08:27:56;4.30;;;1.53;;
10275;SDS011;5183;51.190;6.820;2022-12-29T08:30:23;3.53;;;1.40;;
10275;SDS011;5183;51.190;6.820;2022-12-29T08:32:49;4.67;;;1.70;;
10275;SDS011;5183;51.190;6.820;2022-12-29T08:35:16;6.37;;;1.53;;
10275;SDS011;5183;51.190;6.820;2022-12-29T08:37:43;3.53;;;1.33;;
10275;SDS011;5183;51.190;6.820;2022-12-29T08:40:11;5.57;;;1.50;;
10275;SDS011;5183;51.190;6.820;2022-12-29T08:42:39;5.03;;;1.37;;
10275;SDS011;5183;51.190;6.820;2022-12-29T08:45:06;4.43;;;1.43;;
10275;SDS011;5183;51.190;6.820;2022-12-29T08:47:34;5.27;;;1.70;;
10275;SDS011;5183;51.190;6.820;2022-12-29T08:50:01;4.57;;;1.50;;
10275;SDS011;5183;51.190;6.820;2022-12-29T08:52:28;6.33;;;1.60;;
10275;SDS011;5183;51.190;6.820;2022-12-29T08:54:55;8.87;;;1.93;;
10275;SDS011;5183;51.190;6.820;2022-12-29T08:57:23;5.37;;;1.73;;
10275;SDS011;5183;51.190;6.820;2022-12-29T08:59:50;6.33;;;1.80;;
10275;SDS011;5183;51.190;6.820;2022-12-29T09:02:17;6.23;;;1.80;;
10275;SDS011;5183;51.190;6.820;2022-12-29T09:04:43;6.67;;;2.10;;
10275;SDS011;5183;51.190;6.820;2022-12-29T09:07:10;5.57;;;1.80;;
10275;SDS011;5183;51.190;6.820;2022-12-29T09:09:38;7.57;;;2.03;;
10275;SDS011;5183;51.190;6.820;2022-12-29T09:12:05;7.83;;;2.10;;
10275;SDS011;5183;51.190;6.820;2022-12-29T09:14:33;7.23;;;1.80;;
10275;SDS011;5183;51.190;6.820;2022-12-29T09:17:00;7.37;;;2.30;;
10275;SDS011;5183;51.190;6.820;2022-12-29T09:19:44;6.23;;;1.73;;
10275;SDS011;5183;51.190;6.820;2022-12-29T09:22:11;9.83;;;2.10;;
10275;SDS011;5183;51.190;6.820;2022-12-29T09:24:38;5.83;;;1.60;;
10275;SDS011;5183;51.190;6.820;2022-12-29T09:27:05;6.03;;;1.80;;
10275;SDS011;5183;51.190;6.820;2022-12-29T09:29:33;6.70;;;2.03;;
10275;SDS011;5183;51.190;6.820;2022-12-29T09:31:59;4.97;;;1.70;;
10275;SDS011;5183;51.190;6.820;2022-12-29T09:34:27;6.40;;;1.93;;
10275;SDS011;5183;51.190;6.820;2022-12-29T09:36:53;6.10;;;1.90;;
10275;SDS011;5183;51.190;6.820;2022-12-29T09:39:21;6.47;;;1.73;;
10275;SDS011;5183;51.190;6.820;2022-12-29T09:41:49;6.77;;;1.70;;
10275;SDS011;5183;51.190;6.820;2022-12-29T09:44:23;5.70;;;1.73;;
10275;SDS011;5183;51.190;6.820;2022-12-29T09:46:58;6.03;;;1.93;;
10275;SDS011;5183;51.190;6.820;2022-12-29T09:49:28;7.23;;;1.97;;
10275;SDS011;5183;51.190;6.820;2022-12-29T09:52:10;7.90;;;2.07;;
10275;SDS011;5183;51.190;6.820;2022-12-29T09:54:41;5.40;;;1.70;;
10275;SDS011;5183;51.190;6.820;2022-12-29T09:57:16;6.33;;;2.10;;
10275;SDS011;5183;51.190;6.820;2022-12-29T09:59:46;6.07;;;1.80;;
10275;SDS011;5183;51.190;6.820;2022-12-29T10:02:23;7.57;;;1.90;;
10275;SDS011;5183;51.190;6.820;2022-12-29T10:04:57;6.03;;;1.70;;
10275;SDS011;5183;51.190;6.820;2022-12-29T10:07:26;5.93;;;1.60;;
10275;SDS011;5183;51.190;6.820;2022-12-29T10:10:10;9.23;;;1.90;;
10275;SDS011;5183;51.190;6.820;2022-12-29T10:12:52;6.33;;;1.80;;
10275;SDS011;5183;51.190;6.820;2022-12-29T10:15:30;6.40;;;1.80;;
10275;SDS011;5183;51.190;6.820;2022-12-29T10:18:11;3.87;;;1.57;;
10275;SDS011;5183;51.190;6.820;2022-12-29T10:20:59;9.93;;;2.00;;
10275;SDS011;5183;51.190;6.820;2022-12-29T10:23:32;5.63;;;2.20;;
10275;SDS011;5183;51.190;6.820;2022-12-29T10:26:04;4.87;;;1.90;;
10275;SDS011;5183;51.190;6.820;2022-12-29T10:28:38;8.00;;;1.67;;
10275;SDS011;5183;51.190;6.820;2022-12-29T10:31:11;7.30;;;1.63;;
10275;SDS011;5183;51.190;6.820;2022-12-29T10:33:46;6.03;;;1.77;;
10275;SDS011;5183;51.190;6.820;2022-12-29T10:36:16;6.47;;;2.03;;
10275;SDS011;5183;51.190;6.820;2022-12-29T10:38:58;5.70;;;1.83;;
10275;SDS011;5183;51.190;6.820;2022-12-29T10:41:49;5.73;;;1.83;;
10275;SDS011;5183;51.190;6.820;2022-12-29T10:44:21;7.90;;;2.00;;
10275;SDS011;5183;51.190;6.820;2022-12-29T10:46:52;6.85;;;1.88;;
10275;SDS011;5183;51.190;6.820;2022-12-29T10:49:23;7.00;;;1.80;;
10275;SDS011;5183;51.190;6.820;2022-12-29T10:51:52;6.73;;;2.00;;
10275;SDS011;5183;51.190;6.820;2022-12-29T10:54:23;7.10;;;2.30;;
10275;SDS011;5183;51.190;6.820;2022-12-29T10:56:59;5.33;;;1.60;;
10275;SDS011;5183;51.190;6.820;2022-12-29T10:59:30;6.53;;;1.73;;
10275;SDS011;5183;51.190;6.820;2022-12-29T11:02:00;6.23;;;1.87;;
10275;SDS011;5183;51.190;6.820;2022-12-29T11:04:46;7.80;;;2.67;;
10275;SDS011;5183;51.190;6.820;2022-12-29T11:07:21;7.00;;;1.93;;
10275;SDS011;5183;51.190;6.820;2022-12-29T11:09:48;7.27;;;1.93;;
10275;SDS011;5183;51.190;6.820;2022-12-29T11:12:20;6.20;;;1.87;;
10275;SDS011;5183;51.190;6.820;2022-12-29T11:15:00;7.13;;;1.80;;
10275;SDS011;5183;51.190;6.820;2022-12-29T11:17:42;8.55;;;2.53;;
10275;SDS011;5183;51.190;6.820;2022-12-29T11:20:27;9.23;;;2.00;;
10275;SDS011;5183;51.190;6.820;2022-12-29T11:22:56;9.03;;;2.00;;
10275;SDS011;5183;51.190;6.820;2022-12-29T11:25:22;7.43;;;2.07;;
10275;SDS011;5183;51.190;6.820;2022-12-29T11:27:55;5.33;;;1.60;;
10275;SDS011;5183;51.190;6.820;2022-12-29T11:30:24;8.27;;;1.90;;
10275;SDS011;5183;51.190;6.820;2022-12-29T11:32:53;9.07;;;2.27;;
10275;SDS011;5183;51.190;6.820;2022-12-29T11:35:31;8.20;;;1.93;;
10275;SDS011;5183;51.190;6.820;2022-12-29T11:38:00;6.27;;;2.03;;
10275;SDS011;5183;51.190;6.820;2022-12-29T11:40:28;8.80;;;2.33;;
10275;SDS011;5183;51.190;6.820;2022-12-29T11:42:58;12.77;;;2.37;;
10275;SDS011;5183;51.190;6.820;2022-12-29T11:45:29;12.00;;;2.33;;
10275;SDS011;5183;51.190;6.820;2022-12-29T11:47:58;10.80;;;2.07;;
10275;SDS011;5183;51.190;6.820;2022-12-29T11:50:28;7.70;;;1.77;;
10275;SDS011;5183;51.190;6.820;2022-12-29T11:52:58;9.57;;;2.00;;
10275;SDS011;5183;51.190;6.820;2022-12-29T11:55:26;6.10;;;2.10;;
10275;SDS011;5183;51.190;6.820;2022-12-29T11:57:55;8.53;;;1.93;;
10275;SDS011;5183;51.190;6.820;2022-12-29T12:00:27;10.50;;;2.03;;
10275;SDS011;5183;51.190;6.820;2022-12-29T12:02:56;9.33;;;1.97;;
10275;SDS011;5183;51.190;6.820;2022-12-29T12:05:30;10.67;;;2.27;;
10275;SDS011;5183;51.190;6.820;2022-12-29T12:08:03;9.87;;;2.10;;
10275;SDS011;5183;51.190;6.820;2022-12-29T12:10:37;6.73;;;1.83;;
10275;SDS011;5183;51.190;6.820;2022-12-29T12:13:16;7.33;;;1.97;;
10275;SDS011;5183;51.190;6.820;2022-12-29T12:15:47;10.53;;;2.73;;
10275;SDS011;5183;51.190;6.820;2022-12-29T12:18:21;5.97;;;2.00;;
10275;SDS011;5183;51.190;6.820;2022-12-29T12:20:58;10.10;;;1.87;;
10275;SDS011;5183;51.190;6.820;2022-12-29T12:23:36;5.27;;;1.77;;
10275;SDS011;5183;51.190;6.820;2022-12-29T12:26:11;8.47;;;2.13;;
10275;SDS011;5183;51.190;6.820;2022-12-29T12:28:45;7.50;;;1.93;;
10275;SDS011;5183;51.190;6.820;2022-12-29T12:31:19;5.23;;;1.60;;
10275;SDS011;5183;51.190;6.820;2022-12-29T12:33:55;8.47;;;1.67;;
10275;SDS011;5183;51.190;6.820;2022-12-29T12:36:42;9.10;;;1.83;;
10275;SDS011;5183;51.190;6.820;2022-12-29T12:39:31;8.23;;;1.87;;
10275;SDS011;5183;51.190;6.820;2022-12-29T12:42:11;7.63;;;2.40;;
10275;SDS011;5183;51.190;6.820;2022-12-29T12:44:50;11.13;;;2.53;;
10275;SDS011;5183;51.190;6.820;2022-12-29T12:47:28;8.40;;;2.00;;
10275;SDS011;5183;51.190;6.820;2022-12-29T12:50:14;9.07;;;2.30;;
10275;SDS011;5183;51.190;6.820;2022-12-29T12:53:01;6.33;;;1.70;;
10275;SDS011;5183;51.190;6.820;2022-12-29T12:55:55;10.17;;;2.83;;
10275;SDS011;5183;51.190;6.820;2022-12-29T12:58:33;8.40;;;2.10;;
10275;SDS011;5183;51.190;6.820;2022-12-29T13:01:18;7.63;;;2.33;;
10275;SDS011;5183;51.190;6.820;2022-12-29T13:04:02;7.60;;;1.90;;
10275;SDS011;5183;51.190;6.820;2022-12-29T13:06:55;6.83;;;1.60;;
10275;SDS011;5183;51.190;6.820;2022-12-29T13:09:33;6.63;;;2.00;;
10275;SDS011;5183;51.190;6.820;2022-12-29T13:12:15;7.60;;;1.70;;
10275;SDS011;5183;51.190;6.820;2022-12-29T13:14:53;7.17;;;2.37;;
10275;SDS011;5183;51.190;6.820;2022-12-29T13:17:32;6.93;;;2.00;;
10275;SDS011;5183;51.190;6.820;2022-12-29T13:20:10;6.67;;;1.60;;
10275;SDS011;5183;51.190;6.820;2022-12-29T13:22:48;8.07;;;1.70;;
10275;SDS011;5183;51.190;6.820;2022-12-29T13:25:24;7.40;;;2.10;;
10275;SDS011;5183;51.190;6.820;2022-12-29T13:27:56;11.40;;;2.13;;
10275;SDS011;5183;51.190;6.820;2022-12-29T13:30:29;6.90;;;2.03;;
10275;SDS011;5183;51.190;6.820;2022-12-29T13:33:03;8.20;;;2.00;;
10275;SDS011;5183;51.190;6.820;2022-12-29T13:35:42;8.33;;;2.20;;
10275;SDS011;5183;51.190;6.820;2022-12-29T13:38:21;5.70;;;1.83;;
10275;SDS011;5183;51.190;6.820;2022-12-29T13:40:52;6.50;;;1.53;;
10275;SDS011;5183;51.190;6.820;2022-12-29T13:43:22;6.30;;;2.03;;
10275;SDS011;5183;51.190;6.820;2022-12-29T13:45:55;9.93;;;2.07;;
10275;SDS011;5183;51.190;6.820;2022-12-29T13:48:28;5.30;;;1.73;;
10275;SDS011;5183;51.190;6.820;2022-12-29T13:51:02;7.73;;;2.00;;
10275;SDS011;5183;51.190;6.820;2022-12-29T13:53:33;5.77;;;1.77;;
10275;SDS011;5183;51.190;6.820;2022-12-29T13:56:06;7.37;;;1.83;;
10275;SDS011;5183;51.190;6.820;2022-12-29T13:58:39;7.73;;;1.80;;
10275;SDS011;5183;51.190;6.820;2022-12-29T14:01:12;7.00;;;1.90;;
10275;SDS011;5183;51.190;6.820;2022-12-29T14:03:47;5.47;;;1.57;;
10275;SDS011;5183;51.190;6.820;2022-12-29T14:06:20;3.80;;;1.30;;
10275;SDS011;5183;51.190;6.820;2022-12-29T14:08:49;6.13;;;1.70;;
10275;SDS011;5183;51.190;6.820;2022-12-29T14:11:19;6.17;;;1.40;;
10275;SDS011;5183;51.190;6.820;2022-12-29T14:13:49;3.57;;;1.13;;
10275;SDS011;5183;51.190;6.820;2022-12-29T14:16:27;4.27;;;1.53;;
10275;SDS011;5183;51.190;6.820;2022-12-29T14:19:03;5.77;;;1.90;;
10275;SDS011;5183;51.190;6.820;2022-12-29T14:21:36;5.93;;;1.60;;
10275;SDS011;5183;51.190;6.820;2022-12-29T14:26:53;5.40;;;1.70;;
10275;SDS011;5183;51.190;6.820;2022-12-29T14:38:16;5.17;;;1.20;;
10275;SDS011;5183;51.190;6.820;2022-12-29T14:43:51;4.37;;;1.67;;
10275;SDS011;5183;51.190;6.820;2022-12-29T14:46:20;3.83;;;1.50;;
10275;SDS011;5183;51.190;6.820;2022-12-29T14:48:47;5.10;;;1.70;;
10275;SDS011;5183;51.190;6.820;2022-12-29T14:51:32;6.67;;;1.70;;
10275;SDS011;5183;51.190;6.820;2022-12-29T14:57:07;6.47;;;1.90;;
10275;SDS011;5183;51.190;6.820;2022-12-29T14:59:40;6.23;;;1.87;;
10275;SDS011;5183;51.190;6.820;2022-12-29T15:02:12;6.70;;;1.70;;
10275;SDS011;5183;51.190;6.820;2022-12-29T15:04:41;6.07;;;1.97;;
10275;SDS011;5183;51.190;6.820;2022-12-29T15:07:11;6.80;;;2.00;;
10275;SDS011;5183;51.190;6.820;2022-12-29T15:09:40;7.03;;;1.97;;
10275;SDS011;5183;51.190;6.820;2022-12-29T15:12:22;5.33;;;1.63;;
10275;SDS011;5183;51.190;6.820;2022-12-29T15:14:57;5.10;;;1.70;;
10275;SDS011;5183;51.190;6.820;2022-12-29T15:17:26;4.20;;;1.97;;
10275;SDS011;5183;51.190;6.820;2022-12-29T15:19:54;5.60;;;1.90;;
10275;SDS011;5183;51.190;6.820;2022-12-29T15:22:24;3.53;;;1.63;;
10275;SDS011;5183;51.190;6.820;2022-12-29T15:24:52;7.83;;;2.00;;
10275;SDS011;5183;51.190;6.820;2022-12-29T15:27:21;5.97;;;2.40;;
10275;SDS011;5183;51.190;6.820;2022-12-29T15:29:55;6.87;;;2.00;;
10275;SDS011;5183;51.190;6.820;2022-12-29T15:32:23;7.77;;;2.17;;
10275;SDS011;5183;51.190;6.820;2022-12-29T15:34:52;5.03;;;2.03;;
10275;SDS011;5183;51.190;6.820;2022-12-29T15:37:21;8.57;;;1.97;;
10275;SDS011;5183;51.190;6.820;2022-12-29T15:39:52;4.00;;;1.60;;
10275;SDS011;5183;51.190;6.820;2022-12-29T15:42:26;5.53;;;1.80;;
10275;SDS011;5183;51.190;6.820;2022-12-29T15:45:14;4.43;;;1.53;;
10275;SDS011;5183;51.190;6.820;2022-12-29T15:47:42;6.57;;;2.10;;
10275;SDS011;5183;51.190;6.820;2022-12-29T15:50:15;6.70;;;1.60;;
10275;SDS011;5183;51.190;6.820;2022-12-29T15:52:47;10.67;;;2.30;;
10275;SDS011;5183;51.190;6.820;2022-12-29T15:55:18;5.57;;;1.80;;
10275;SDS011;5183;51.190;6.820;2022-12-29T15:57:47;4.80;;;1.93;;
10275;SDS011;5183;51.190;6.820;2022-12-29T16:00:21;8.03;;;2.13;;
10275;SDS011;5183;51.190;6.820;2022-12-29T16:02:50;6.90;;;2.50;;
10275;SDS011;5183;51.190;6.820;2022-12-29T16:05:18;6.80;;;1.90;;
10275;SDS011;5183;51.190;6.820;2022-12-29T16:07:52;7.53;;;2.03;;
10275;SDS011;5183;51.190;6.820;2022-12-29T16:10:29;10.37;;;2.50;;
10275;SDS011;5183;51.190;6.820;2022-12-29T16:13:03;7.30;;;2.60;;
10275;SDS011;5183;51.190;6.820;2022-12-29T16:15:31;7.00;;;2.67;;
10275;SDS011;5183;51.190;6.820;2022-12-29T16:17:58;9.70;;;2.87;;
10275;SDS011;5183;51.190;6.820;2022-12-29T16:20:31;6.70;;;2.43;;
10275;SDS011;5183;51.190;6.820;2022-12-29T16:23:05;7.73;;;2.50;;
10275;SDS011;5183;51.190;6.820;2022-12-29T16:25:36;7.03;;;2.27;;
10275;SDS011;5183;51.190;6.820;2022-12-29T16:28:12;6.83;;;2.00;;
10275;SDS011;5183;51.190;6.820;2022-12-29T16:30:43;7.17;;;2.23;;
10275;SDS011;5183;51.190;6.820;2022-12-29T16:35:58;16.10;;;7.03;;
10275;SDS011;5183;51.190;6.820;2022-12-29T16:38:30;12.80;;;6.80;;
10275;SDS011;5183;51.190;6.820;2022-12-29T16:40:59;11.10;;;3.30;;
10275;SDS011;5183;51.190;6.820;2022-12-29T16:43:28;13.87;;;4.80;;
10275;SDS011;5183;51.190;6.820;2022-12-29T16:46:15;11.03;;;4.70;;
10275;SDS011;5183;51.190;6.820;2022-12-29T16:48:47;13.03;;;4.37;;
10275;SDS011;5183;51.190;6.820;2022-12-29T16:51:17;7.77;;;3.03;;
10275;SDS011;5183;51.190;6.820;2022-12-29T16:53:49;8.83;;;2.90;;
10275;SDS011;5183;51.190;6.820;2022-12-29T16:56:19;8.77;;;2.60;;
10275;SDS011;5183;51.190;6.820;2022-12-29T16:58:48;8.53;;;2.60;;
10275;SDS011;5183;51.190;6.820;2022-12-29T17:01:19;7.10;;;2.30;;
10275;SDS011;5183;51.190;6.820;2022-12-29T17:03:47;8.70;;;2.90;;
10275;SDS011;5183;51.190;6.820;2022-12-29T17:06:18;9.17;;;3.40;;
10275;SDS011;5183;51.190;6.820;2022-12-29T17:08:46;7.87;;;3.20;;
10275;SDS011;5183;51.190;6.820;2022-12-29T17:11:19;12.27;;;3.90;;
10275;SDS011;5183;51.190;6.820;2022-12-29T17:14:10;9.37;;;3.33;;
10275;SDS011;5183;51.190;6.820;2022-12-29T17:16:49;8.13;;;2.57;;
10275;SDS011;5183;51.190;6.820;2022-12-29T17:19:16;10.10;;;3.43;;
10275;SDS011;5183;51.190;6.820;2022-12-29T17:21:43;11.23;;;3.03;;
10275;SDS011;5183;51.190;6.820;2022-12-29T17:24:11;6.50;;;2.73;;
10275;SDS011;5183;51.190;6.820;2022-12-29T17:26:44;11.10;;;4.00;;
10275;SDS011;5183;51.190;6.820;2022-12-29T17:29:15;8.13;;;2.90;;
10275;SDS011;5183;51.190;6.820;2022-12-29T17:31:47;12.00;;;3.60;;
10275;SDS011;5183;51.190;6.820;2022-12-29T17:34:14;11.30;;;3.80;;
10275;SDS011;5183;51.190;6.820;2022-12-29T17:36:41;12.50;;;4.33;;
10275;SDS011;5183;51.190;6.820;2022-12-29T17:39:08;11.70;;;4.13;;
10275;SDS011;5183;51.190;6.820;2022-12-29T17:41:35;13.47;;;4.97;;
10275;SDS011;5183;51.190;6.820;2022-12-29T17:44:04;14.50;;;4.00;;
10275;SDS011;5183;51.190;6.820;2022-12-29T17:46:32;10.30;;;3.60;;
10275;SDS011;5183;51.190;6.820;2022-12-29T17:48:58;14.60;;;4.40;;
10275;SDS011;5183;51.190;6.820;2022-12-29T17:51:25;13.87;;;3.53;;
10275;SDS011;5183;51.190;6.820;2022-12-29T17:53:52;11.67;;;4.37;;
10275;SDS011;5183;51.190;6.820;2022-12-29T17:56:20;12.73;;;3.90;;
10275;SDS011;5183;51.190;6.820;2022-12-29T17:58:47;11.53;;;3.50;;
10275;SDS011;5183;51.190;6.820;2022-12-29T18:01:16;12.30;;;3.90;;
10275;SDS011;5183;51.190;6.820;2022-12-29T18:03:45;11.30;;;3.40;;
10275;SDS011;5183;51.190;6.820;2022-12-29T18:06:12;10.50;;;3.00;;
10275;SDS011;5183;51.190;6.820;2022-12-29T18:08:39;11.33;;;3.67;;
10275;SDS011;5183;51.190;6.820;2022-12-29T18:11:14;15.13;;;3.57;;
10275;SDS011;5183;51.190;6.820;2022-12-29T18:13:47;13.87;;;4.50;;
10275;SDS011;5183;51.190;6.820;2022-12-29T18:16:14;13.40;;;4.00;;
10275;SDS011;5183;51.190;6.820;2022-12-29T18:18:42;11.37;;;3.57;;
10275;SDS011;5183;51.190;6.820;2022-12-29T18:21:13;13.33;;;3.67;;
10275;SDS011;5183;51.190;6.820;2022-12-29T18:23:42;13.50;;;4.00;;
10275;SDS011;5183;51.190;6.820;2022-12-29T18:26:12;11.63;;;4.20;;
10275;SDS011;5183;51.190;6.820;2022-12-29T18:28:40;11.87;;;3.70;;
10275;SDS011;5183;51.190;6.820;2022-12-29T18:31:12;13.17;;;4.10;;
10275;SDS011;5183;51.190;6.820;2022-12-29T18:33:44;11.57;;;4.20;;
10275;SDS011;5183;51.190;6.820;2022-12-29T18:36:12;15.67;;;3.93;;
10275;SDS011;5183;51.190;6.820;2022-12-29T18:38:39;13.80;;;3.70;;
10275;SDS011;5183;51.190;6.820;2022-12-29T18:41:09;11.33;;;4.20;;
10275;SDS011;5183;51.190;6.820;2022-12-29T18:43:40;13.47;;;4.73;;
10275;SDS011;5183;51.190;6.820;2022-12-29T18:46:07;12.60;;;4.23;;
10275;SDS011;5183;51.190;6.820;2022-12-29T18:48:34;14.53;;;4.13;;
10275;SDS011;5183;51.190;6.820;2022-12-29T18:51:03;11.17;;;3.27;;
10275;SDS011;5183;51.190;6.820;2022-12-29T18:53:31;16.00;;;3.70;;
10275;SDS011;5183;51.190;6.820;2022-12-29T18:56:01;14.00;;;3.73;;
10275;SDS011;5183;51.190;6.820;2022-12-29T18:58:28;9.73;;;3.33;;
10275;SDS011;5183;51.190;6.820;2022-12-29T19:00:55;12.17;;;4.20;;
10275;SDS011;5183;51.190;6.820;2022-12-29T19:03:22;13.33;;;4.13;;
10275;SDS011;5183;51.190;6.820;2022-12-29T19:05:48;15.77;;;3.97;;
10275;SDS011;5183;51.190;6.820;2022-12-29T19:08:17;14.17;;;4.20;;
10275;SDS011;5183;51.190;6.820;2022-12-29T19:10:44;13.30;;;3.67;;
10275;SDS011;5183;51.190;6.820;2022-12-29T19:13:13;16.27;;;3.70;;
10275;SDS011;5183;51.190;6.820;2022-12-29T19:15:42;14.17;;;3.70;;
10275;SDS011;5183;51.190;6.820;2022-12-29T19:18:10;12.23;;;4.00;;
10275;SDS011;5183;51.190;6.820;2022-12-29T19:20:43;12.98;;;3.80;;
10275;SDS011;5183;51.190;6.820;2022-12-29T19:23:11;10.67;;;4.00;;
10275;SDS011;5183;51.190;6.820;2022-12-29T19:25:41;12.57;;;3.90;;
10275;SDS011;5183;51.190;6.820;2022-12-29T19:28:11;11.20;;;3.73;;
10275;SDS011;5183;51.190;6.820;2022-12-29T19:30:42;12.37;;;3.30;;
10275;SDS011;5183;51.190;6.820;2022-12-29T19:33:09;11.27;;;3.07;;
10275;SDS011;5183;51.190;6.820;2022-12-29T19:35:36;7.40;;;2.67;;
10275;SDS011;5183;51.190;6.820;2022-12-29T19:38:03;13.60;;;3.10;;
10275;SDS011;5183;51.190;6.820;2022-12-29T19:40:30;11.53;;;3.40;;
10275;SDS011;5183;51.190;6.820;2022-12-29T19:42:58;11.00;;;3.00;;
10275;SDS011;5183;51.190;6.820;2022-12-29T19:45:25;10.30;;;3.30;;
10275;SDS011;5183;51.190;6.820;2022-12-29T19:47:52;10.73;;;3.20;;
10275;SDS011;5183;51.190;6.820;2022-12-29T19:50:19;7.20;;;2.50;;
10275;SDS011;5183;51.190;6.820;2022-12-29T19:52:46;12.33;;;3.73;;
10275;SDS011;5183;51.190;6.820;2022-12-29T19:55:13;10.03;;;2.80;;
10275;SDS011;5183;51.190;6.820;2022-12-29T19:57:41;11.37;;;3.60;;
10275;SDS011;5183;51.190;6.820;2022-12-29T20:00:10;9.63;;;2.70;;
10275;SDS011;5183;51.190;6.820;2022-12-29T20:02:39;7.23;;;2.90;;
10275;SDS011;5183;51.190;6.820;2022-12-29T20:05:06;13.00;;;2.93;;
10275;SDS011;5183;51.190;6.820;2022-12-29T20:07:34;10.50;;;3.27;;
10275;SDS011;5183;51.190;6.820;2022-12-29T20:10:01;11.57;;;3.30;;
10275;SDS011;5183;51.190;6.820;2022-12-29T20:12:28;7.20;;;2.93;;
10275;SDS011;5183;51.190;6.820;2022-12-29T20:14:57;10.10;;;3.30;;
10275;SDS011;5183;51.190;6.820;2022-12-29T20:17:26;9.10;;;2.60;;
10275;SDS011;5183;51.190;6.820;2022-12-29T20:19:52;8.63;;;2.53;;
10275;SDS011;5183;51.190;6.820;2022-12-29T20:22:19;11.20;;;3.10;;
10275;SDS011;5183;51.190;6.820;2022-12-29T20:24:46;11.73;;;3.07;;
10275;SDS011;5183;51.190;6.820;2022-12-29T20:27:13;17.03;;;3.43;;
10275;SDS011;5183;51.190;6.820;2022-12-29T20:29:40;9.90;;;3.30;;
10275;SDS011;5183;51.190;6.820;2022-12-29T20:32:09;12.67;;;3.93;;
10275;SDS011;5183;51.190;6.820;2022-12-29T20:34:42;11.37;;;3.30;;
10275;SDS011;5183;51.190;6.820;2022-12-29T20:37:10;11.77;;;3.80;;
10275;SDS011;5183;51.190;6.820;2022-12-29T20:39:38;12.13;;;3.43;;
10275;SDS011;5183;51.190;6.820;2022-12-29T20:42:05;11.60;;;3.60;;
10275;SDS011;5183;51.190;6.820;2022-12-29T20:44:32;12.13;;;3.93;;
10275;SDS011;5183;51.190;6.820;2022-12-29T20:46:59;10.70;;;3.60;;
10275;SDS011;5183;51.190;6.820;2022-12-29T20:49:27;14.67;;;4.20;;
10275;SDS011;5183;51.190;6.820;2022-12-29T20:51:55;12.90;;;3.93;;
10275;SDS011;5183;51.190;6.820;2022-12-29T20:54:22;12.93;;;3.67;;
10275;SDS011;5183;51.190;6.820;2022-12-29T20:56:49;12.37;;;3.80;;
10275;SDS011;5183;51.190;6.820;2022-12-29T20:59:17;18.93;;;4.40;;
10275;SDS011;5183;51.190;6.820;2022-12-29T21:01:43;14.00;;;3.47;;
10275;SDS011;5183;51.190;6.820;2022-12-29T21:04:10;13.03;;;4.10;;
10275;SDS011;5183;51.190;6.820;2022-12-29T21:06:37;12.67;;;3.87;;
10275;SDS011;5183;51.190;6.820;2022-12-29T21:09:05;13.37;;;4.43;;
10275;SDS011;5183;51.190;6.820;2022-12-29T21:11:32;16.50;;;4.20;;
10275;SDS011;5183;51.190;6.820;2022-12-29T21:13:59;16.13;;;5.20;;
10275;SDS011;5183;51.190;6.820;2022-12-29T21:16:26;11.37;;;3.57;;
10275;SDS011;5183;51.190;6.820;2022-12-29T21:18:53;11.63;;;4.57;;
10275;SDS011;5183;51.190;6.820;2022-12-29T21:21:20;11.30;;;4.83;;
10275;SDS011;5183;51.190;6.820;2022-12-29T21:23:49;13.03;;;4.07;;
10275;SDS011;5183;51.190;6.820;2022-12-29T21:26:19;13.33;;;5.47;;